Archival Weather

Agadez

Agadez, Niger (DRZA)

Report from: Thursday, September 21, 2023 7:00 PM WAT
Current time: Tuesday, July 16, 2024 3:29 PM WAT

Current weather – Weather history – Daily summaries
Weather forecast

Temperature37.0°C (98.6°F)
Heat index34.9°C (94.9°F)
Dew point8.0°C (46.4°F)
Winds 5 kts (2.6 m/s, 5.8 mph) Southeast (140°)
Clouds Sky clear
Altimeter29.80 in.Hg (1009 mB)
Relative humidity17 %
Density altitude2,785 ft. (849 m)
Remarks Ceiling and visibility OK
Flight conditions Visual Meteorological Conditions
Raw dataDRZA 211800Z 14005KT CAVOK 37/08 Q1009
An error has occurred. This application may no longer respond until reloaded. Reload 🗙